Terminal Aerodrome Forecast
Issued by NWS

Home | Current Version | Previous Version | Text Only | Print | Product List | Glossary On
Versions: 1 2 3 4 5 6 7 8 9 10 11 12 13 14
000
FTUS45 KREV 292300
TAFMMH
TAF
KMMH 292329Z 3000/3024 32010G18KT P6SM -TSRA SCT070 BKN090CB
     FM300100 30010KT P6SM SCT090 BKN180
     FM300500 VRB04KT P6SM BKN120 OVC180
     FM301900 12007KT P6SM VCTS SCT070 BKN090CB
      AMD NOT SKED 3002/3014=

USA.gov is the U.S. government's official web portal to all federal, state and local government web resources and services.